createdAt,value
2022-10-23T00:02:18.978Z,1.20
2022-10-23T00:06:20.899Z,1.95
2022-10-23T00:10:24.239Z,1.13
2022-10-23T00:14:25.898Z,1.73
2022-10-23T00:18:27.483Z,1.58
2022-10-23T00:22:29.057Z,1.33
2022-10-23T00:26:30.676Z,1.67
2022-10-23T00:30:32.290Z,2.45
2022-10-23T00:34:33.887Z,1.30
2022-10-23T00:38:36.389Z,1.63
2022-10-23T00:42:37.996Z,1.40
2022-10-23T00:46:40.293Z,2.13
2022-10-23T00:50:42.382Z,1.23
2022-10-23T00:54:44.157Z,1.13
2022-10-23T00:58:45.782Z,1.63
2022-10-23T01:02:47.471Z,1.95
2022-10-23T01:07:10.747Z,1.95
2022-10-23T01:11:25.564Z,1.25
2022-10-23T01:15:44.132Z,1.10
2022-10-23T01:19:54.963Z,1.33
2022-10-23T01:24:09.090Z,2.20
2022-10-23T01:28:14.465Z,2.08
2022-10-23T01:32:34.044Z,1.50
2022-10-23T01:36:39.599Z,1.38
2022-10-23T01:41:11.143Z,1.38
2022-10-23T01:45:23.133Z,1.05
2022-10-23T01:49:25.028Z,2.15
2022-10-23T01:53:30.627Z,1.50
2022-10-23T01:57:34.120Z,2.05
2022-10-23T02:01:40.004Z,1.17
2022-10-23T02:09:44.505Z,1.10
2022-10-23T02:14:26.983Z,1.42
2022-10-23T02:18:46.520Z,1.23
2022-10-23T02:23:00.920Z,1.50
2022-10-23T02:27:13.747Z,2.35
2022-10-23T02:31:19.927Z,2.55
2022-10-23T02:35:23.784Z,1.48
2022-10-23T02:39:27.946Z,1.15
2022-10-23T02:43:43.381Z,1.67
2022-10-23T02:47:50.754Z,0.97
2022-10-23T02:52:37.055Z,1.13
2022-10-23T02:56:55.138Z,2.00
2022-10-23T03:01:04.364Z,1.55
2022-10-23T03:05:09.817Z,2.13
2022-10-23T03:09:12.318Z,1.13
2022-10-23T03:13:14.200Z,1.48
2022-10-23T03:17:15.794Z,1.45
2022-10-23T03:21:17.602Z,1.25
2022-10-23T03:25:19.229Z,0.95
2022-10-23T03:29:21.064Z,1.52
2022-10-23T03:33:23.242Z,1.17
2022-10-23T03:37:24.937Z,1.60
2022-10-23T03:41:26.743Z,1.17
2022-10-23T03:45:28.428Z,1.38
2022-10-23T03:49:30.039Z,2.20
2022-10-23T03:53:31.644Z,1.17
2022-10-23T03:57:33.387Z,1.98
2022-10-23T04:01:35.169Z,1.00
2022-10-23T04:05:37.737Z,1.58
2022-10-23T04:09:39.482Z,0.80
2022-10-23T04:13:41.070Z,1.30
2022-10-23T04:17:42.688Z,1.25
2022-10-23T04:21:44.857Z,2.15
2022-10-23T04:29:49.493Z,2.25
2022-10-23T04:33:51.143Z,2.83
2022-10-23T04:37:52.782Z,1.40
2022-10-23T04:41:54.417Z,1.00
2022-10-23T04:45:56.247Z,1.80
2022-10-23T04:49:57.851Z,1.67
2022-10-23T04:53:59.518Z,1.30
2022-10-23T04:58:01.088Z,0.75
2022-10-23T05:02:02.744Z,1.92
2022-10-23T05:06:05.663Z,1.10
2022-10-23T05:10:07.636Z,2.50
2022-10-23T05:14:09.439Z,1.05
2022-10-23T05:18:21.125Z,1.17
2022-10-23T05:22:27.002Z,0.85
2022-10-23T05:26:30.632Z,1.40
2022-10-23T05:30:33.521Z,1.20
2022-10-23T05:34:36.786Z,0.93
2022-10-23T05:38:38.426Z,2.03
2022-10-23T05:42:41.679Z,0.95
2022-10-23T05:46:44.246Z,1.77
2022-10-23T05:50:45.820Z,0.95
2022-10-23T05:54:47.898Z,1.27
2022-10-23T05:58:49.462Z,1.30
2022-10-23T06:02:51.021Z,1.27
2022-10-23T06:06:52.619Z,1.10
2022-10-23T06:10:54.204Z,1.30
2022-10-23T06:14:55.860Z,1.20
2022-10-23T06:18:57.649Z,1.35
2022-10-23T06:22:59.201Z,1.17
2022-10-23T06:27:00.809Z,0.80
2022-10-23T06:31:07.156Z,1.25
2022-10-23T06:35:09.071Z,0.80
2022-10-23T06:39:10.738Z,1.17
2022-10-23T06:43:12.339Z,2.20
2022-10-23T06:47:14.527Z,1.20
2022-10-23T06:51:17.736Z,1.00
2022-10-23T06:55:19.936Z,0.85
2022-10-23T06:59:21.531Z,0.98
2022-10-23T07:03:23.125Z,1.45
2022-10-23T07:07:24.739Z,1.08
2022-10-23T07:11:26.349Z,0.80
2022-10-23T07:15:28.057Z,2.13
2022-10-23T07:19:29.647Z,1.30
2022-10-23T07:23:31.311Z,1.92
2022-10-23T07:27:37.233Z,2.05
2022-10-23T07:31:39.357Z,1.08
2022-10-23T07:35:41.220Z,1.02
2022-10-23T07:39:42.789Z,1.08
2022-10-23T07:43:44.466Z,2.28
2022-10-23T07:47:50.651Z,1.23
2022-10-23T07:51:53.874Z,1.63
2022-10-23T07:55:57.665Z,3.90
2022-10-23T07:59:59.290Z,1.77
2022-10-23T08:04:01.569Z,2.58
2022-10-23T08:08:03.177Z,3.75
2022-10-23T08:12:05.287Z,2.95
2022-10-23T08:16:07.482Z,5.38
2022-10-23T08:20:09.427Z,4.03
2022-10-23T08:24:14.732Z,4.53
2022-10-23T08:28:16.674Z,7.30
2022-10-23T08:32:18.289Z,4.53
2022-10-23T08:36:21.086Z,4.03
2022-10-23T08:40:24.769Z,4.25
2022-10-23T08:44:33.027Z,5.05
2022-10-23T08:48:49.017Z,3.83
2022-10-23T08:52:58.941Z,4.05
2022-10-23T08:57:14.882Z,4.65
2022-10-23T09:01:31.159Z,9.27
2022-10-23T09:10:02.764Z,3.83
2022-10-23T09:14:10.362Z,3.15
2022-10-23T09:18:14.984Z,5.50
2022-10-23T09:22:16.618Z,5.93
2022-10-23T09:26:18.741Z,3.33
2022-10-23T09:30:29.190Z,3.10
2022-10-23T09:34:32.695Z,6.03
2022-10-23T09:38:47.358Z,5.30
2022-10-23T09:43:03.999Z,4.82
2022-10-23T09:47:11.254Z,5.57
2022-10-23T09:51:19.266Z,5.57
2022-10-23T09:55:24.940Z,3.53
2022-10-23T09:59:30.998Z,4.93
2022-10-23T10:07:36.640Z,6.57
2022-10-23T10:11:54.106Z,4.97
2022-10-23T10:16:00.939Z,4.55
2022-10-23T10:20:11.550Z,6.47
2022-10-23T10:24:24.549Z,7.40
2022-10-23T10:28:26.221Z,6.05
2022-10-23T10:32:37.841Z,7.18
2022-10-23T10:36:50.709Z,5.47
2022-10-23T10:41:17.170Z,6.72
2022-10-23T10:45:26.835Z,4.00
2022-10-23T10:49:54.690Z,7.50
2022-10-23T10:54:02.040Z,5.45
2022-10-23T10:58:13.546Z,7.18
2022-10-23T11:02:48.443Z,6.18
2022-10-23T11:06:53.801Z,8.15
2022-10-23T11:11:01.375Z,14.63
2022-10-23T11:15:03.657Z,11.32
2022-10-23T11:19:25.514Z,16.35
2022-10-23T11:23:45.979Z,16.35
2022-10-23T11:28:16.291Z,17.60
2022-10-23T11:32:23.835Z,19.25
2022-10-23T11:36:43.793Z,22.42
2022-10-23T11:40:52.962Z,21.02
2022-10-23T11:44:55.162Z,26.92
2022-10-23T11:48:57.520Z,26.88
2022-10-23T11:53:23.259Z,23.55
2022-10-23T11:57:25.011Z,30.93
2022-10-23T12:01:55.964Z,27.38
2022-10-23T12:06:01.855Z,31.38
2022-10-23T12:10:26.304Z,21.38
2022-10-23T12:14:35.138Z,17.90
2022-10-23T12:18:51.359Z,19.02
2022-10-23T12:23:20.545Z,16.55
2022-10-23T12:27:39.848Z,25.70
2022-10-23T12:31:47.026Z,21.85
2022-10-23T12:35:52.558Z,25.35
2022-10-23T12:39:56.424Z,18.88
2022-10-23T12:44:09.541Z,18.25
2022-10-23T12:48:20.470Z,18.25
2022-10-23T12:52:24.428Z,13.45
2022-10-23T12:56:29.442Z,14.63
2022-10-23T13:00:33.444Z,12.07
2022-10-23T13:04:36.486Z,15.45
2022-10-23T13:08:44.600Z,12.60
2022-10-23T13:12:58.739Z,13.48
2022-10-23T13:17:02.288Z,19.90
2022-10-23T13:21:04.495Z,13.00
2022-10-23T13:25:21.810Z,12.32
2022-10-23T13:29:30.818Z,12.80
2022-10-23T13:33:38.078Z,10.70
2022-10-23T13:37:39.793Z,10.85
2022-10-23T13:41:44.905Z,11.48
2022-10-23T13:45:46.588Z,8.60
2022-10-23T13:49:48.187Z,12.48
2022-10-23T13:53:50.358Z,9.70
2022-10-23T13:57:52.191Z,8.05
2022-10-23T14:01:53.963Z,10.57
2022-10-23T14:05:55.715Z,6.07
2022-10-23T14:09:57.304Z,9.93
2022-10-23T14:14:00.678Z,6.80
2022-10-23T14:18:07.321Z,8.00
2022-10-23T14:22:09.931Z,7.18
2022-10-23T14:26:14.230Z,6.13
2022-10-23T14:34:26.574Z,8.02
2022-10-23T14:38:28.720Z,6.80
2022-10-23T14:42:34.130Z,8.13
2022-10-23T14:46:38.070Z,7.93
2022-10-23T14:50:44.262Z,7.30
2022-10-23T14:58:47.414Z,6.10
2022-10-23T15:02:49.074Z,7.78
2022-10-23T15:06:50.723Z,7.35
2022-10-23T15:10:52.508Z,8.32
2022-10-23T15:14:54.202Z,6.88
2022-10-23T15:18:55.874Z,6.47
2022-10-23T15:22:57.457Z,6.40
2022-10-23T15:27:00.110Z,5.93
2022-10-23T15:31:01.913Z,6.28
2022-10-23T15:35:03.658Z,3.88
2022-10-23T15:39:09.949Z,4.00
2022-10-23T15:43:15.742Z,7.20
2022-10-23T15:47:17.334Z,6.05
2022-10-23T15:51:18.938Z,5.03
2022-10-23T15:55:21.099Z,3.67
2022-10-23T15:59:25.030Z,5.95
2022-10-23T16:03:26.674Z,5.13
2022-10-23T16:07:28.834Z,9.57
2022-10-23T16:11:33.698Z,6.68
2022-10-23T16:15:36.424Z,5.75
2022-10-23T16:19:38.088Z,4.45
2022-10-23T16:23:39.659Z,3.53
2022-10-23T16:27:41.478Z,3.47
2022-10-23T16:31:43.415Z,4.03
2022-10-23T16:35:44.970Z,5.30
2022-10-23T16:39:46.597Z,4.72
2022-10-23T16:43:48.191Z,9.50
2022-10-23T16:47:49.797Z,4.53
2022-10-23T16:51:51.373Z,4.70
2022-10-23T16:55:52.921Z,4.82
2022-10-23T16:59:55.351Z,6.72
2022-10-23T17:03:57.465Z,14.00
2022-10-23T17:07:59.181Z,47.00
2022-10-23T17:12:01.617Z,51.78
2022-10-23T17:16:10.034Z,47.28
2022-10-23T17:20:12.105Z,70.10
2022-10-23T17:24:13.765Z,56.10
2022-10-23T17:28:15.648Z,51.88
2022-10-23T17:32:17.366Z,45.05
2022-10-23T17:36:20.062Z,39.53
2022-10-23T17:40:25.078Z,29.50
2022-10-23T17:44:27.345Z,31.17
2022-10-23T17:48:29.279Z,16.90
2022-10-23T17:52:30.914Z,19.88
2022-10-23T17:56:34.230Z,25.98
2022-10-23T18:00:36.988Z,23.33
2022-10-23T18:04:38.567Z,16.15
2022-10-23T18:08:41.593Z,13.07
2022-10-23T18:12:43.176Z,14.73
2022-10-23T18:16:45.776Z,16.52
2022-10-23T18:20:47.642Z,9.82
2022-10-23T18:24:49.278Z,6.57
2022-10-23T18:28:53.548Z,12.60
2022-10-23T18:32:57.990Z,12.25
2022-10-23T18:37:00.550Z,13.63
2022-10-23T18:41:02.162Z,10.70
2022-10-23T18:45:04.562Z,7.93
2022-10-23T18:49:06.237Z,6.22
2022-10-23T18:53:07.996Z,7.18
2022-10-23T18:57:09.568Z,9.18
2022-10-23T19:01:11.655Z,9.77
2022-10-23T19:05:13.617Z,8.18
2022-10-23T19:09:15.770Z,7.43
2022-10-23T19:13:17.394Z,6.20
2022-10-23T19:17:23.905Z,10.45
2022-10-23T19:21:31.691Z,5.80
2022-10-23T19:25:35.875Z,4.80
2022-10-23T19:29:40.848Z,4.50
2022-10-23T19:33:42.568Z,4.30
2022-10-23T19:37:44.538Z,8.45
2022-10-23T19:41:46.772Z,5.47
2022-10-23T19:45:48.560Z,7.60
2022-10-23T19:49:51.607Z,4.25
2022-10-23T19:53:54.834Z,8.07
2022-10-23T20:02:10.421Z,7.13
2022-10-23T20:06:14.886Z,4.13
2022-10-23T20:10:16.510Z,2.45
2022-10-23T20:14:19.266Z,4.57
2022-10-23T20:18:20.849Z,8.07
2022-10-23T20:22:23.496Z,5.00
2022-10-23T20:26:25.417Z,4.90
2022-10-23T20:30:27.008Z,3.90
2022-10-23T20:34:28.604Z,4.07
2022-10-23T20:38:30.345Z,5.65
2022-10-23T20:42:31.954Z,3.88
2022-10-23T20:46:34.330Z,6.13
2022-10-23T20:50:36.158Z,4.60
2022-10-23T20:54:38.287Z,4.90
2022-10-23T20:58:39.994Z,6.03
2022-10-23T21:02:41.882Z,4.35
2022-10-23T21:06:57.648Z,4.38
2022-10-23T21:11:07.867Z,2.63
2022-10-23T21:15:09.989Z,2.95
2022-10-23T21:19:13.554Z,4.03
2022-10-23T21:23:15.165Z,5.72
2022-10-23T21:27:17.169Z,4.75
2022-10-23T21:31:20.001Z,2.72
2022-10-23T21:35:22.194Z,3.88
2022-10-23T21:39:25.137Z,4.97
2022-10-23T21:43:26.760Z,4.15
2022-10-23T21:47:28.336Z,2.75
2022-10-23T21:51:40.026Z,5.72
2022-10-23T21:55:41.653Z,2.65
2022-10-23T21:59:43.446Z,4.15
2022-10-23T22:03:45.006Z,6.38
2022-10-23T22:07:47.949Z,3.25
2022-10-23T22:11:50.336Z,3.95
2022-10-23T22:15:51.905Z,1.83
2022-10-23T22:19:53.514Z,2.85
2022-10-23T22:23:57.196Z,4.47
2022-10-23T22:27:59.236Z,2.30
2022-10-23T22:32:00.820Z,2.67
2022-10-23T22:36:03.314Z,2.05
2022-10-23T22:40:05.519Z,2.67
2022-10-23T22:44:07.094Z,2.45
2022-10-23T22:48:08.671Z,2.53
2022-10-23T22:52:10.491Z,4.07
2022-10-23T22:56:15.018Z,4.63
2022-10-23T23:00:17.060Z,1.90
2022-10-23T23:08:41.268Z,4.43
2022-10-23T23:12:42.882Z,1.95
2022-10-23T23:16:44.445Z,2.75
2022-10-23T23:20:46.376Z,3.70
2022-10-23T23:24:47.942Z,2.70
2022-10-23T23:28:54.648Z,1.98
2022-10-23T23:32:56.358Z,2.47
2022-10-23T23:36:58.081Z,2.30
2022-10-23T23:40:59.700Z,3.22
2022-10-23T23:45:13.811Z,4.47
2022-10-23T23:49:16.426Z,3.78
2022-10-23T23:53:18.117Z,4.55
2022-10-23T23:57:19.711Z,2.85
